Terminal Aerodrome Forecast
Issued by NWS Billings, MT

Home | Current Version | Previous Version | Text Only | Print | Product List | Glossary On
Versions: 1 2 3 4 5 6 7 8 9 10 11 12 13 14 15 16 17 18 19 20 21 22 23 24 25 26 27 28 29 30
000
FTUS45 KBYZ 251228 AAA
TAFSHR
TAF AMD
KSHR 251228Z 2512/2612 30012KT P6SM VCSH BKN007 OVC100
     FM251400 32008KT 5SM -SHRA BR SCT007 BKN020 OVC040
     FM251800 32008KT P6SM VCSH SCT020 BKN070
     FM260200 VRB05KT P6SM FEW040 SCT200
     FM261000 VRB05KT P6SM VCSH SCT030 BKN080=

USA.gov is the U.S. government's official web portal to all federal, state and local government web resources and services.